Time;durP1;ratioP1;P1;durP2;ratioP2;P2;SDS_P1;SDS_P2;PMS_P1;PMS_P2;Temp;Humidity;BMP_temperature;BMP_pressure;BME280_temperature;BME280_humidity;BME280_pressure;Samples;Min_cycle;Max_cycle;Signal;HPM_P1;HPM_P2
2024/02/25 00:01:00;;;;;;;;;;;;;;;21.72;24.13;98060.41;5016236;28;980;-75
2024/02/25 00:03:25;;;;;;;;;;;;;;;21.64;23.92;98059.78;5016875;28;1030;-75
2024/02/25 00:05:51;;;;;;;;;;;;;;;21.49;24.24;98052.88;4999852;28;884;-76
2024/02/25 00:08:16;;;;;;;;;;;;;;;21.15;24.58;98051.28;5015873;28;1910;-75
2024/02/25 00:10:42;;;;;;;;;;;;;;;21.45;24.48;98053.00;5017443;28;1051;-76
2024/02/25 00:13:07;;;;;;;;;;;;;;;21.64;24.19;98051.28;5015882;28;941;-76
2024/02/25 00:15:33;;;;;;;;;;;;;;;21.74;24.08;98057.91;4999670;28;1190;-76
2024/02/25 00:17:58;;;;;;;;;;;;;;;21.80;23.88;98045.59;5017184;28;942;-75
2024/02/25 00:20:24;;;;;;;;;;;;;;;21.76;23.69;98050.56;4994943;28;918;-75
2024/02/25 00:22:50;;;;;;;;;;;;;;;21.87;23.68;98038.16;4962782;28;1567;-75
2024/02/25 00:25:16;;;;;;;;;;;;;;;21.92;23.65;98046.13;4994871;28;1052;-76
2024/02/25 00:27:41;;;;;;;;;;;;;;;21.91;23.84;98044.50;4978276;28;1260;-75
2024/02/25 00:30:07;;;;;;;;;;;;;;;21.95;23.64;98042.38;4978519;28;1907;-76
2024/02/25 00:32:33;;;;;;;;;;;;;;;21.58;24.22;98044.56;4956138;29;951;-76
2024/02/25 00:35:00;;;;;;;;;;;;;;;21.21;24.40;98049.50;4924053;29;1154;-75
2024/02/25 00:37:26;;;;;;;;;;;;;;;21.35;24.45;98039.09;4956124;29;912;-76
2024/02/25 00:39:51;;;;;;;;;;;;;;;21.56;23.98;98041.41;4924642;29;1106;-75
2024/02/25 00:42:17;;;;;;;;;;;;;;;21.73;23.79;98037.28;4940688;29;943;-76
2024/02/25 00:44:46;;;;;;;;;;;;;;;21.70;23.80;98035.34;4955895;29;1034;-75
2024/02/25 00:47:11;;;;;;;;;;;;;;;21.83;23.80;98033.38;4941013;29;992;-76
2024/02/25 00:49:37;;;;;;;;;;;;;;;21.77;23.81;98029.50;4939839;29;1923;-75
2024/02/25 00:52:02;;;;;;;;;;;;;;;21.86;23.52;98023.19;4986514;28;1072;-76
2024/02/25 00:54:28;;;;;;;;;;;;;;;21.84;23.86;98029.31;4975340;28;1174;-76
2024/02/25 00:56:54;;;;;;;;;;;;;;;21.63;24.02;98029.88;4943291;28;959;-76
2024/02/25 00:59:20;;;;;;;;;;;;;;;21.28;24.49;98025.88;4939673;29;1692;-75
2024/02/25 01:01:46;;;;;;;;;;;;;;;21.40;24.39;98022.38;4940737;29;1015;-76
2024/02/25 01:04:11;;;;;;;;;;;;;;;21.44;24.29;98020.25;4939584;29;994;-76
2024/02/25 01:06:37;;;;;;;;;;;;;;;21.53;24.23;98025.28;4956233;28;1012;-76
2024/02/25 01:09:03;;;;;;;;;;;;;;;21.84;23.66;98017.97;4926336;28;1902;-76
2024/02/25 01:11:29;;;;;;;;;;;;;;;21.93;23.44;98019.38;4943275;28;1624;-76
2024/02/25 01:13:55;;;;;;;;;;;;;;;21.81;23.83;98018.88;4975158;28;1048;-76
2024/02/25 01:16:20;;;;;;;;;;;;;;;21.85;23.57;98019.56;4975484;28;1016;-76
2024/02/25 01:18:46;;;;;;;;;;;;;;;21.70;23.88;98018.34;4959098;28;1057;-75
2024/02/25 01:21:11;;;;;;;;;;;;;;;21.60;23.97;98019.41;4943396;28;1121;-75
2024/02/25 01:23:37;;;;;;;;;;;;;;;21.31;24.36;98013.72;4958726;28;979;-75
2024/02/25 01:26:02;;;;;;;;;;;;;;;21.59;23.93;98010.13;4959492;28;1038;-75
2024/02/25 01:28:28;;;;;;;;;;;;;;;21.65;24.00;98010.38;4958681;28;1985;-75
2024/02/25 01:30:53;;;;;;;;;;;;;;;21.63;24.12;98004.38;4977070;28;984;-75
2024/02/25 01:33:19;;;;;;;;;;;;;;;21.84;23.74;98005.84;4977910;28;917;-75
2024/02/25 01:35:44;;;;;;;;;;;;;;;21.82;23.53;98009.13;4996664;28;1001;-75
2024/02/25 01:38:10;;;;;;;;;;;;;;;21.76;23.62;98010.94;4998790;28;1377;-75
2024/02/25 01:40:36;;;;;;;;;;;;;;;21.83;23.81;98005.06;5002782;28;932;-76
2024/02/25 01:43:11;;;;;;;;;;;;;;;21.72;23.66;97998.09;5018405;28;1120;-75
2024/02/25 01:45:37;;;;;;;;;;;;;;;21.45;24.28;97995.56;5019850;28;947;-76
2024/02/25 01:48:03;;;;;;;;;;;;;;;21.22;24.55;97988.84;5019411;28;1914;-75
2024/02/25 01:50:28;;;;;;;;;;;;;;;21.31;24.38;97989.03;5020015;28;929;-75
2024/02/25 01:52:54;;;;;;;;;;;;;;;21.62;24.00;97999.19;5019735;28;911;-76
2024/02/25 01:55:20;;;;;;;;;;;;;;;21.85;23.82;97985.56;4981626;28;1226;-76
2024/02/25 01:57:46;;;;;;;;;;;;;;;21.83;23.45;97988.06;4981668;28;1278;-75
2024/02/25 02:00:12;;;;;;;;;;;;;;;21.74;23.68;97990.72;4981531;28;970;-75
2024/02/25 02:02:37;;;;;;;;;;;;;;;21.85;23.75;97991.22;4981491;28;1254;-75
2024/02/25 02:05:04;;;;;;;;;;;;;;;21.61;24.07;97998.38;4981214;28;1108;-76
2024/02/25 02:07:29;;;;;;;;;;;;;;;21.76;23.62;97999.59;4981732;28;1080;-75
2024/02/25 02:09:55;;;;;;;;;;;;;;;21.45;24.08;97995.56;4981435;28;1898;-76
2024/02/25 02:12:20;;;;;;;;;;;;;;;21.13;24.48;98007.66;4997688;28;955;-75
2024/02/25 02:14:46;;;;;;;;;;;;;;;21.56;24.05;98005.38;4981244;28;1109;-75
2024/02/25 02:17:11;;;;;;;;;;;;;;;21.63;24.04;98000.75;4981131;28;1159;-76
2024/02/25 02:19:37;;;;;;;;;;;;;;;21.50;24.08;97992.19;4997327;28;1007;-75
2024/02/25 02:22:02;;;;;;;;;;;;;;;21.69;23.72;97999.78;4981128;28;1011;-76
2024/02/25 02:24:28;;;;;;;;;;;;;;;21.90;23.61;98003.25;4948779;28;975;-75
2024/02/25 02:26:53;;;;;;;;;;;;;;;21.67;23.71;98001.47;5013528;28;1065;-76
2024/02/25 02:29:19;;;;;;;;;;;;;;;21.57;23.96;98009.00;4981133;28;1907;-76
2024/02/25 02:31:44;;;;;;;;;;;;;;;21.81;23.63;98013.22;4981146;28;1153;-75
2024/02/25 02:34:10;;;;;;;;;;;;;;;21.43;23.95;98004.50;4964891;28;1112;-75
2024/02/25 02:36:35;;;;;;;;;;;;;;;21.40;24.25;98004.59;4965028;28;973;-76
2024/02/25 02:39:04;;;;;;;;;;;;;;;21.19;24.41;98012.38;4996700;28;1117;-75
2024/02/25 02:41:29;;;;;;;;;;;;;;;21.56;24.13;98018.75;4981496;28;992;-76
2024/02/25 02:43:55;;;;;;;;;;;;;;;21.61;23.83;98009.72;4942209;29;962;-76
2024/02/25 02:46:20;;;;;;;;;;;;;;;21.75;23.67;98014.97;4942567;29;1284;-76
2024/02/25 02:48:46;;;;;;;;;;;;;;;21.65;24.06;98012.44;4941607;29;1894;-76
2024/02/25 02:51:11;;;;;;;;;;;;;;;21.70;23.63;98020.38;4941563;29;1177;-75
2024/02/25 02:53:37;;;;;;;;;;;;;;;21.90;23.71;98014.59;4938734;29;1402;-76
2024/02/25 02:56:02;;;;;;;;;;;;;;;21.92;23.77;98017.78;4939230;29;926;-76
2024/02/25 02:58:28;;;;;;;;;;;;;;;21.65;23.75;98021.72;4922806;29;1325;-76
2024/02/25 03:00:53;;;;;;;;;;;;;;;21.53;24.21;98013.97;4915216;29;1232;-75
2024/02/25 03:03:19;;;;;;;;;;;;;;;21.43;24.08;98015.81;4919409;29;1027;-76
2024/02/25 03:05:45;;;;;;;;;;;;;;;21.01;24.58;98018.44;4919586;29;978;-75
2024/02/25 03:08:10;;;;;;;;;;;;;;;21.44;24.31;98010.97;4903635;29;1971;-75
2024/02/25 03:10:36;;;;;;;;;;;;;;;21.53;23.91;98008.31;4919370;29;1178;-75
2024/02/25 03:13:01;;;;;;;;;;;;;;;21.64;23.75;98005.97;4919417;29;901;-75
2024/02/25 03:15:27;;;;;;;;;;;;;;;21.77;23.75;98001.19;4947287;29;985;-76
2024/02/25 03:17:52;;;;;;;;;;;;;;;21.68;24.00;98009.50;4957426;29;956;-76
2024/02/25 03:20:19;;;;;;;;;;;;;;;21.88;23.67;98019.91;4941636;29;966;-76
2024/02/25 03:22:44;;;;;;;;;;;;;;;21.31;24.24;98023.00;4957934;29;1177;-75
2024/02/25 03:25:11;;;;;;;;;;;;;;;21.20;24.41;98016.78;4956937;29;1020;-76
2024/02/25 03:27:37;;;;;;;;;;;;;;;21.36;24.54;98018.06;4957575;29;961;-76
2024/02/25 03:30:06;;;;;;;;;;;;;;;21.77;23.75;98018.16;4944525;28;1992;-76
2024/02/25 03:32:32;;;;;;;;;;;;;;;21.66;23.88;98012.00;4963731;28;1169;-76
2024/02/25 03:34:57;;;;;;;;;;;;;;;21.52;23.86;98009.53;4995891;28;1041;-75
2024/02/25 03:37:23;;;;;;;;;;;;;;;21.80;23.56;98017.25;4998574;28;1031;-76
2024/02/25 03:39:48;;;;;;;;;;;;;;;21.82;23.83;98014.78;5017506;28;1173;-76
2024/02/25 03:42:14;;;;;;;;;;;;;;;21.69;23.70;98021.63;5000640;28;1037;-76
2024/02/25 03:44:42;;;;;;;;;;;;;;;21.56;23.95;98021.56;5017354;28;918;-75
2024/02/25 03:47:08;;;;;;;;;;;;;;;21.68;23.91;98014.38;5000370;28;1295;-76
2024/02/25 03:49:33;;;;;;;;;;;;;;;21.58;24.11;98010.59;5000010;28;1910;-76
2024/02/25 03:51:59;;;;;;;;;;;;;;;21.42;24.24;98013.44;5016517;28;1075;-76
2024/02/25 03:54:25;;;;;;;;;;;;;;;21.54;24.25;98015.53;4999479;28;970;-75
2024/02/25 03:56:50;;;;;;;;;;;;;;;21.64;23.85;98008.81;5016481;28;917;-76
2024/02/25 03:59:16;;;;;;;;;;;;;;;21.78;23.75;98019.75;5016477;28;1105;-75
2024/02/25 04:01:41;;;;;;;;;;;;;;;21.88;23.74;98015.03;5000111;28;1671;-76
2024/02/25 04:04:07;;;;;;;;;;;;;;;21.89;23.77;98013.00;5016078;28;1162;-75
2024/02/25 04:06:32;;;;;;;;;;;;;;;21.75;23.88;98014.97;4999945;28;1017;-75
2024/02/25 04:08:58;;;;;;;;;;;;;;;21.73;23.91;98011.81;4999536;28;1977;-75
2024/02/25 04:11:23;;;;;;;;;;;;;;;21.95;23.62;98014.03;4999963;28;1118;-76
2024/02/25 04:13:49;;;;;;;;;;;;;;;21.63;23.78;98012.09;5017139;28;935;-75
2024/02/25 04:16:15;;;;;;;;;;;;;;;21.37;24.31;98011.16;5016236;28;1010;-76
2024/02/25 04:18:41;;;;;;;;;;;;;;;21.31;24.39;98008.84;4999535;28;941;-76
2024/02/25 04:21:06;;;;;;;;;;;;;;;21.55;23.84;98000.16;4998983;28;1007;-75
2024/02/25 04:23:32;;;;;;;;;;;;;;;21.62;23.73;98013.34;4992209;28;1281;-76
2024/02/25 04:25:57;;;;;;;;;;;;;;;21.72;23.56;98006.59;5005432;28;1277;-75
2024/02/25 04:28:23;;;;;;;;;;;;;;;21.75;23.54;98009.31;4973605;28;2251;-76
2024/02/25 04:30:48;;;;;;;;;;;;;;;21.94;23.42;98020.97;4990463;28;1254;-76
2024/02/25 04:33:14;;;;;;;;;;;;;;;21.83;23.51;98022.03;5005067;28;1383;-75
2024/02/25 04:35:40;;;;;;;;;;;;;;;21.92;23.34;98023.47;4988124;28;1242;-75
2024/02/25 04:38:07;;;;;;;;;;;;;;;21.65;23.68;98010.38;4966118;28;1215;-75
2024/02/25 04:40:33;;;;;;;;;;;;;;;21.46;23.97;98019.81;4964990;28;1589;-76
2024/02/25 04:42:59;;;;;;;;;;;;;;;21.42;24.31;98016.28;4995030;28;996;-75
2024/02/25 04:45:24;;;;;;;;;;;;;;;21.36;24.16;98020.88;4978740;28;1082;-75
2024/02/25 04:47:50;;;;;;;;;;;;;;;21.80;23.57;98017.25;4995260;28;902;-75
2024/02/25 04:50:15;;;;;;;;;;;;;;;21.76;23.46;98022.25;4994645;28;1906;-75
2024/02/25 04:52:41;;;;;;;;;;;;;;;21.86;23.46;98017.50;4978570;28;1149;-75
2024/02/25 04:55:06;;;;;;;;;;;;;;;21.63;23.87;98015.72;5005337;28;956;-76
2024/02/25 04:57:32;;;;;;;;;;;;;;;21.97;23.17;98025.75;4965215;28;1762;-73
2024/02/25 04:59:57;;;;;;;;;;;;;;;21.93;23.25;98030.72;5014362;28;1057;-75
2024/02/25 05:02:24;;;;;;;;;;;;;;;21.52;23.89;98020.88;4997924;28;986;-75
2024/02/25 05:04:49;;;;;;;;;;;;;;;21.62;23.89;98005.63;5014187;28;967;-75
2024/02/25 05:07:15;;;;;;;;;;;;;;;21.67;23.86;98019.25;4994752;28;1496;-75
2024/02/25 05:09:41;;;;;;;;;;;;;;;21.63;23.68;98023.41;4994548;28;1910;-76
2024/02/25 05:12:06;;;;;;;;;;;;;;;21.77;23.63;98025.88;4961995;28;1301;-76
2024/02/25 05:14:32;;;;;;;;;;;;;;;21.69;23.76;98022.44;4980868;28;1058;-75
2024/02/25 05:16:57;;;;;;;;;;;;;;;21.92;23.59;98029.13;4997733;28;1472;-75
2024/02/25 05:19:23;;;;;;;;;;;;;;;21.68;23.77;98025.72;4991286;28;1460;-75
2024/02/25 05:21:48;;;;;;;;;;;;;;;21.73;23.81;98023.13;4946785;28;2460;-75
2024/02/25 05:24:14;;;;;;;;;;;;;;;21.95;23.55;98026.16;4963050;28;1046;-75
2024/02/25 05:26:40;;;;;;;;;;;;;;;20.92;23.68;97895.84;4963019;28;922;-75
2024/02/25 05:29:05;;;;;;;;;;;;;;;21.60;23.86;98033.59;4976823;28;1907;-75
2024/02/25 05:31:31;;;;;;;;;;;;;;;21.42;24.13;98044.59;4998491;28;1146;-75
2024/02/25 05:33:56;;;;;;;;;;;;;;;21.34;24.45;98046.78;4992007;28;1490;-75
2024/02/25 05:36:24;;;;;;;;;;;;;;;21.64;23.74;98053.31;5015950;28;1532;-75
2024/02/25 05:38:50;;;;;;;;;;;;;;;21.70;23.89;98046.66;5000944;28;1340;-75
2024/02/25 05:41:15;;;;;;;;;;;;;;;21.93;23.34;98047.69;4985295;28;1048;-75
2024/02/25 05:43:41;;;;;;;;;;;;;;;21.89;23.45;98052.66;5017751;28;996;-75
2024/02/25 05:46:07;;;;;;;;;;;;;;;21.98;23.48;98050.00;4943015;29;1157;-75
2024/02/25 05:48:32;;;;;;;;;;;;;;;21.85;23.34;98050.72;4958546;29;1974;-76
2024/02/25 05:50:58;;;;;;;;;;;;;;;21.87;23.53;98049.50;4959176;28;1835;-76
2024/02/25 05:53:23;;;;;;;;;;;;;;;21.68;23.66;98040.66;4978278;28;1632;-75
2024/02/25 05:55:49;;;;;;;;;;;;;;;21.36;24.43;98054.84;4962185;28;1200;-75
2024/02/25 05:58:14;;;;;;;;;;;;;;;21.27;24.32;98047.72;4962107;28;1051;-75
2024/02/25 06:00:42;;;;;;;;;;;;;;;21.59;23.88;98040.50;4962030;28;1008;-75
2024/02/25 06:03:07;;;;;;;;;;;;;;;21.57;23.93;98043.78;4962228;28;986;-74
2024/02/25 06:05:33;;;;;;;;;;;;;;;21.75;23.70;98042.50;4959097;29;1311;-75
2024/02/25 06:07:59;;;;;;;;;;;;;;;21.81;23.70;98041.53;4944941;28;1344;-75
2024/02/25 06:10:24;;;;;;;;;;;;;;;21.73;23.72;98051.44;4961678;28;1972;-76
2024/02/25 06:12:50;;;;;;;;;;;;;;;21.94;23.66;98054.97;4961700;28;1057;-76
2024/02/25 06:15:16;;;;;;;;;;;;;;;21.82;23.74;98045.16;4962032;28;986;-76
2024/02/25 06:17:42;;;;;;;;;;;;;;;21.62;23.85;98050.16;5007159;28;895;-75
2024/02/25 06:20:09;;;;;;;;;;;;;;;21.33;24.48;98056.50;4999740;28;1352;-75
2024/02/25 06:22:35;;;;;;;;;;;;;;;21.26;24.60;98057.47;5001096;28;947;-75
2024/02/25 06:25:02;;;;;;;;;;;;;;;21.31;24.35;98059.78;4999350;28;956;-75
2024/02/25 06:27:28;;;;;;;;;;;;;;;21.71;23.85;98048.28;5000984;28;918;-75
2024/02/25 06:29:53;;;;;;;;;;;;;;;21.88;23.73;98045.41;5000379;28;1910;-75
2024/02/25 06:32:19;;;;;;;;;;;;;;;21.83;23.80;98044.72;5000787;28;1079;-75
2024/02/25 06:34:45;;;;;;;;;;;;;;;21.99;23.36;98045.91;5015725;28;1786;-75
2024/02/25 06:37:10;;;;;;;;;;;;;;;21.93;23.58;98050.53;5013361;28;1000;-75
2024/02/25 06:39:36;;;;;;;;;;;;;;;21.74;23.83;98046.59;5018463;28;1093;-75
2024/02/25 06:42:01;;;;;;;;;;;;;;;21.62;24.05;98044.47;5017706;28;936;-75
2024/02/25 06:44:27;;;;;;;;;;;;;;;21.63;24.13;98035.53;5017415;28;1196;-75
2024/02/25 06:46:52;;;;;;;;;;;;;;;21.56;24.04;98047.06;5001557;28;1139;-75
2024/02/25 06:49:18;;;;;;;;;;;;;;;21.64;23.87;98053.31;5004760;28;1918;-75
2024/02/25 06:51:43;;;;;;;;;;;;;;;21.74;23.90;98064.38;5029482;28;1498;-75
2024/02/25 06:54:09;;;;;;;;;;;;;;;21.54;24.05;98060.84;5017214;28;845;-76
2024/02/25 06:56:34;;;;;;;;;;;;;;;21.81;23.53;98061.38;5001050;28;1316;-76
2024/02/25 06:59:00;;;;;;;;;;;;;;;21.85;23.68;98064.88;5018577;28;947;-75
2024/02/25 07:01:25;;;;;;;;;;;;;;;22.15;23.50;98060.06;5000891;28;1096;-76
2024/02/25 07:03:51;;;;;;;;;;;;;;;21.63;24.11;98051.72;5017026;28;880;-75
2024/02/25 07:06:16;;;;;;;;;;;;;;;21.53;23.97;98064.91;5017174;28;1512;-75
2024/02/25 07:08:42;;;;;;;;;;;;;;;21.28;24.53;98059.84;5018063;28;1967;-76
2024/02/25 07:11:15;;;;;;;;;;;;;;;21.44;24.41;98056.25;5017273;28;996;-75
2024/02/25 07:13:41;;;;;;;;;;;;;;;21.65;24.19;98055.69;5000420;28;1454;-75
2024/02/25 07:16:07;;;;;;;;;;;;;;;21.83;23.71;98061.69;5017314;28;1048;-75
2024/02/25 07:18:32;;;;;;;;;;;;;;;21.75;23.79;98062.31;5016494;28;1385;-75
2024/02/25 07:20:58;;;;;;;;;;;;;;;21.98;23.56;98061.31;5000988;28;1360;-75
2024/02/25 07:23:24;;;;;;;;;;;;;;;21.83;24.02;98064.53;5026202;28;1334;-75
2024/02/25 07:25:49;;;;;;;;;;;;;;;21.95;23.90;98071.50;5036844;28;1266;-75
2024/02/25 07:28:15;;;;;;;;;;;;;;;21.84;24.05;98057.63;5036066;28;1914;-74
2024/02/25 07:30:40;;;;;;;;;;;;;;;21.49;24.53;98058.53;5037571;28;925;-74
2024/02/25 07:33:06;;;;;;;;;;;;;;;21.39;24.66;98065.28;5036441;28;961;-75
2024/02/25 07:35:31;;;;;;;;;;;;;;;21.46;24.57;98056.63;5037940;28;930;-76
2024/02/25 07:37:57;;;;;;;;;;;;;;;21.47;24.33;98055.38;5015231;28;1544;-75
2024/02/25 07:40:22;;;;;;;;;;;;;;;21.58;24.11;98055.91;5016379;28;1192;-75
2024/02/25 07:42:48;;;;;;;;;;;;;;;21.69;24.27;98045.09;5016760;28;919;-75
2024/02/25 07:45:14;;;;;;;;;;;;;;;21.49;24.30;98035.91;4999815;28;1175;-75
2024/02/25 07:47:39;;;;;;;;;;;;;;;21.58;24.36;98044.56;5017801;28;1093;-76
2024/02/25 07:50:05;;;;;;;;;;;;;;;21.59;24.20;98034.81;5016262;28;1973;-75
2024/02/25 07:52:31;;;;;;;;;;;;;;;21.73;24.02;98034.47;4963649;28;1672;-75
2024/02/25 07:54:57;;;;;;;;;;;;;;;21.55;24.43;98039.78;4960062;28;1113;-76
2024/02/25 07:57:22;;;;;;;;;;;;;;;21.44;24.44;98033.59;4943989;28;1005;-75
2024/02/25 07:59:48;;;;;;;;;;;;;;;21.47;24.64;98038.38;4960029;28;1288;-75
2024/02/25 08:02:13;;;;;;;;;;;;;;;21.70;24.06;98035.34;4960179;28;1082;-75
2024/02/25 08:04:39;;;;;;;;;;;;;;;21.77;24.10;98032.34;4959851;28;1388;-75
2024/02/25 08:07:05;;;;;;;;;;;;;;;22.06;23.93;98037.22;4959678;28;1247;-76
2024/02/25 08:09:30;;;;;;;;;;;;;;;21.88;23.74;98034.88;4955453;28;1900;-75
2024/02/25 08:11:57;;;;;;;;;;;;;;;21.84;24.19;98023.63;4995650;28;987;-75
2024/02/25 08:14:25;;;;;;;;;;;;;;;21.79;24.11;98029.84;4978934;28;1587;-75
2024/02/25 08:16:51;;;;;;;;;;;;;;;21.59;24.47;98029.16;4978863;28;972;-75
2024/02/25 08:19:16;;;;;;;;;;;;;;;21.47;24.34;98027.06;4995051;28;981;-75
2024/02/25 08:21:42;;;;;;;;;;;;;;;21.44;24.55;98028.72;4995473;28;958;-75
2024/02/25 08:24:07;;;;;;;;;;;;;;;21.55;24.59;98036.94;4992135;28;1444;-75
2024/02/25 08:26:33;;;;;;;;;;;;;;;21.75;24.32;98037.63;4959886;28;970;-75
2024/02/25 08:28:59;;;;;;;;;;;;;;;21.83;23.91;98030.53;4963856;28;1977;-75
2024/02/25 08:31:25;;;;;;;;;;;;;;;21.83;24.16;98033.38;5016267;28;879;-75
2024/02/25 08:33:50;;;;;;;;;;;;;;;21.97;24.12;98025.75;5016466;28;943;-75
2024/02/25 08:36:16;;;;;;;;;;;;;;;21.84;24.27;98022.84;5017122;28;924;-75
2024/02/25 08:38:41;;;;;;;;;;;;;;;21.66;24.26;98031.81;5015223;28;1301;-75
2024/02/25 08:41:07;;;;;;;;;;;;;;;21.31;24.75;98025.84;5018371;28;985;-75
2024/02/25 08:43:33;;;;;;;;;;;;;;;21.30;24.79;98012.94;5035945;28;904;-74
2024/02/25 08:45:58;;;;;;;;;;;;;;;21.55;24.68;98017.97;5036947;28;943;-75
2024/02/25 08:48:24;;;;;;;;;;;;;;;21.58;24.41;98019.09;5001598;28;1983;-75
2024/02/25 08:50:50;;;;;;;;;;;;;;;21.94;24.10;98023.78;5035548;28;938;-75
2024/02/25 08:53:15;;;;;;;;;;;;;;;21.65;24.28;98026.59;5018969;28;1102;-75
2024/02/25 08:55:41;;;;;;;;;;;;;;;21.73;24.33;98034.47;5014719;28;1320;-74
2024/02/25 08:58:07;;;;;;;;;;;;;;;21.74;24.48;98041.72;5016560;28;903;-75
2024/02/25 09:00:32;;;;;;;;;;;;;;;21.60;24.69;98042.06;5019873;28;1511;-76
2024/02/25 09:02:59;;;;;;;;;;;;;;;21.35;24.96;98036.25;5036048;28;920;-75
2024/02/25 09:05:26;;;;;;;;;;;;;;;21.58;24.49;98019.09;4998061;28;1458;-75
2024/02/25 09:07:53;;;;;;;;;;;;;;;21.57;24.73;98026.00;5026441;28;1656;-74
2024/02/25 09:10:19;;;;;;;;;;;;;;;21.66;24.44;98022.50;5016282;28;1979;-75
2024/02/25 09:12:47;;;;;;;;;;;;;;;21.73;24.56;98034.47;5012382;28;1389;-75
2024/02/25 09:15:14;;;;;;;;;;;;;;;21.68;24.50;98032.16;4999092;28;1402;-75
2024/02/25 09:17:39;;;;;;;;;;;;;;;21.81;24.20;98024.53;4999065;28;921;-75
2024/02/25 09:20:05;;;;;;;;;;;;;;;21.94;24.22;98027.41;5015214;28;952;-75
2024/02/25 09:22:30;;;;;;;;;;;;;;;21.36;25.11;98020.88;5016606;28;910;-74
2024/02/25 09:24:56;;;;;;;;;;;;;;;21.22;25.39;98027.66;5033155;28;1527;-76
2024/02/25 09:27:21;;;;;;;;;;;;;;;21.58;24.57;98025.53;5034883;28;978;-75
2024/02/25 09:29:47;;;;;;;;;;;;;;;21.58;24.81;98025.53;5023012;28;1914;-75
2024/02/25 09:32:12;;;;;;;;;;;;;;;21.79;24.20;98024.19;5015595;28;942;-75
2024/02/25 09:34:39;;;;;;;;;;;;;;;21.96;24.04;98021.28;4994049;28;999;-75
2024/02/25 09:37:05;;;;;;;;;;;;;;;21.97;24.29;98020.09;4978521;28;1014;-75
2024/02/25 09:39:30;;;;;;;;;;;;;;;21.97;24.23;98017.25;4978159;28;1265;-75
2024/02/25 09:41:56;;;;;;;;;;;;;;;21.61;24.49;98009.72;4994312;28;1109;-75
2024/02/25 09:44:22;;;;;;;;;;;;;;;21.51;24.64;98016.44;4978176;28;1002;-76
2024/02/25 09:46:49;;;;;;;;;;;;;;;21.51;24.51;98016.44;4970141;28;1035;-75
2024/02/25 09:49:15;;;;;;;;;;;;;;;21.73;24.69;98016.69;4985825;28;2631;-74
2024/02/25 09:51:41;;;;;;;;;;;;;;;21.65;24.67;98010.38;5013318;28;1543;-75
2024/02/25 09:54:06;;;;;;;;;;;;;;;21.83;24.33;98010.72;4981075;28;1042;-74
2024/02/25 09:56:32;;;;;;;;;;;;;;;21.58;24.63;98004.94;4997637;28;946;-75
2024/02/25 09:58:58;;;;;;;;;;;;;;;21.85;24.39;98013.88;5013933;28;1109;-75
2024/02/25 10:01:24;;;;;;;;;;;;;;;21.85;24.24;98008.22;5001068;28;1020;-75
2024/02/25 10:03:50;;;;;;;;;;;;;;;21.96;24.26;98007.13;4995947;28;1473;-75
2024/02/25 10:06:16;;;;;;;;;;;;;;;21.95;24.30;98012.00;4971677;28;1429;-75
2024/02/25 10:08:46;;;;;;;;;;;;;;;21.81;24.52;98006.72;4977651;28;1910;-75
2024/02/25 10:11:11;;;;;;;;;;;;;;;21.37;24.89;98005.50;4930288;28;1222;-75
2024/02/25 10:13:37;;;;;;;;;;;;;;;21.04;25.54;98005.47;4961583;28;983;-75
2024/02/25 10:16:03;;;;;;;;;;;;;;;21.35;24.87;97996.63;4978013;28;929;-75
2024/02/25 10:18:28;;;;;;;;;;;;;;;21.64;24.49;97997.47;4961543;28;972;-75
2024/02/25 10:21:00;;;;;;;;;;;;;;;21.77;24.25;97989.84;4993426;28;1472;-75
2024/02/25 10:23:27;;;;;;;;;;;;;;;21.84;24.29;97994.50;4980691;28;1140;-76
2024/02/25 10:25:53;;;;;;;;;;;;;;;21.83;24.47;97993.72;4981561;28;940;-75
2024/02/25 10:28:18;;;;;;;;;;;;;;;21.90;24.10;97992.72;4996998;28;923;-75
2024/02/25 10:30:59;;;;;;;;;;;;;;;21.84;24.47;97989.66;4980910;28;948;-75
2024/02/25 10:33:25;;;;;;;;;;;;;;;21.62;24.60;97985.81;4980571;28;1367;-75
2024/02/25 10:35:51;;;;;;;;;;;;;;;21.39;25.01;97981.16;4979087;28;1451;-75
2024/02/25 10:38:16;;;;;;;;;;;;;;;21.40;24.79;97988.44;4969318;28;1414;-75
2024/02/25 10:40:42;;;;;;;;;;;;;;;21.61;24.81;97987.06;4961417;28;971;-75
2024/02/25 10:43:09;;;;;;;;;;;;;;;21.72;24.37;97979.06;4993632;28;961;-75
2024/02/25 10:45:34;;;;;;;;;;;;;;;21.79;24.22;97976.03;5019954;28;938;-75
2024/02/25 10:48:00;;;;;;;;;;;;;;;21.72;24.69;97981.91;5019490;28;1010;-75
2024/02/25 10:50:25;;;;;;;;;;;;;;;21.83;24.40;97982.41;5019720;28;1910;-74
2024/02/25 10:52:51;;;;;;;;;;;;;;;21.75;24.35;97978.16;5015501;28;1364;-75
2024/02/25 10:55:17;;;;;;;;;;;;;;;21.69;24.41;97971.44;4999946;28;1390;-75
2024/02/25 10:57:43;;;;;;;;;;;;;;;21.56;24.76;97967.78;4999955;28;982;-75
2024/02/25 11:00:11;;;;;;;;;;;;;;;21.41;24.96;97966.56;5000299;28;960;-75
2024/02/25 11:02:36;;;;;;;;;;;;;;;21.36;25.29;97961.44;4999879;28;970;-75
2024/02/25 11:05:02;;;;;;;;;;;;;;;21.52;24.76;97955.75;4999831;28;978;-75
2024/02/25 11:07:27;;;;;;;;;;;;;;;21.90;24.37;97944.56;5001510;28;1350;-75
2024/02/25 11:09:53;;;;;;;;;;;;;;;21.95;24.32;97960.22;5031800;28;1973;-73
2024/02/25 11:12:20;;;;;;;;;;;;;;;21.91;24.47;97948.19;5036081;28;921;-75
2024/02/25 11:15:06;;;;;;;;;;;;;;;21.64;24.68;97952.19;5020363;28;1287;-75
2024/02/25 11:17:36;;;;;;;;;;;;;;;21.39;25.08;97947.19;5036609;28;957;-75
2024/02/25 11:20:01;;;;;;;;;;;;;;;21.27;25.20;97934.53;5036625;28;907;-75
2024/02/25 11:22:43;;;;;;;;;;;;;;;21.61;24.53;97946.63;5033468;28;1522;-75
2024/02/25 11:25:24;;;;;;;;;;;;;;;21.66;24.75;97935.56;5003847;28;1185;-75
2024/02/25 11:27:56;;;;;;;;;;;;;;;21.79;24.50;97941.25;5037484;28;989;-75
2024/02/25 11:30:22;;;;;;;;;;;;;;;21.84;24.25;97932.19;5019792;28;1898;-74
2024/02/25 11:32:47;;;;;;;;;;;;;;;21.89;24.17;97945.03;5036382;28;1057;-75
2024/02/25 11:35:15;;;;;;;;;;;;;;;21.40;25.03;97931.00;5037573;28;979;-75
2024/02/25 11:37:43;;;;;;;;;;;;;;;21.32;25.04;97924.75;5014764;28;1889;-75
2024/02/25 11:40:10;;;;;;;;;;;;;;;21.65;24.58;97925.44;5016394;28;1085;-75
2024/02/25 11:42:35;;;;;;;;;;;;;;;21.67;24.41;97922.97;5016802;28;920;-75
2024/02/25 11:45:01;;;;;;;;;;;;;;;21.88;24.41;97918.75;5017383;28;998;-75
2024/02/25 11:47:26;;;;;;;;;;;;;;;21.66;24.52;97921.41;5017535;28;869;-75
2024/02/25 11:49:53;;;;;;;;;;;;;;;21.67;24.66;97914.47;5017301;28;1894;-75
2024/02/25 11:52:18;;;;;;;;;;;;;;;21.97;24.30;97918.09;5016367;28;1461;-75
2024/02/25 11:54:44;;;;;;;;;;;;;;;21.83;24.53;97910.78;5016397;28;1353;-75
2024/02/25 11:57:09;;;;;;;;;;;;;;;21.45;25.08;97919.13;5017341;28;919;-75
2024/02/25 11:59:35;;;;;;;;;;;;;;;21.53;24.79;97912.03;5017098;28;938;-75
2024/02/25 12:02:01;;;;;;;;;;;;;;;21.58;24.93;97911.50;5017209;28;913;-75
2024/02/25 12:04:26;;;;;;;;;;;;;;;21.55;24.71;97920.88;4999677;28;1092;-75
2024/02/25 12:06:52;;;;;;;;;;;;;;;21.80;24.50;97914.50;5015877;28;1401;-75
2024/02/25 12:09:20;;;;;;;;;;;;;;;21.87;24.55;97913.53;5016866;28;1906;-75
2024/02/25 12:11:46;;;;;;;;;;;;;;;21.85;24.49;97917.59;4999669;28;1232;-75
2024/02/25 12:14:14;;;;;;;;;;;;;;;21.93;24.32;97906.06;5015574;28;915;-75
2024/02/25 12:16:40;;;;;;;;;;;;;;;21.73;24.93;97915.50;5014965;28;1061;-75
2024/02/25 12:19:05;;;;;;;;;;;;;;;21.35;24.95;97911.72;4998467;28;985;-75
2024/02/25 12:21:31;;;;;;;;;;;;;;;21.43;25.07;97918.78;5008826;28;1482;-75
2024/02/25 12:24:00;;;;;;;;;;;;;;;21.49;24.86;97917.00;4994136;28;1020;-75
2024/02/25 12:26:28;;;;;;;;;;;;;;;21.51;24.82;97914.53;4979087;28;1342;-75
2024/02/25 12:29:05;;;;;;;;;;;;;;;21.83;24.47;97903.09;4962922;28;2070;-75
2024/02/25 12:31:31;;;;;;;;;;;;;;;21.77;24.65;97906.94;4978733;28;991;-74
2024/02/25 12:33:57;;;;;;;;;;;;;;;21.84;24.38;97904.66;4984431;28;1540;-75
2024/02/25 12:36:22;;;;;;;;;;;;;;;21.72;24.78;97902.59;4994913;28;1094;-75
2024/02/25 12:38:48;;;;;;;;;;;;;;;21.71;24.52;97901.03;4978524;28;1544;-75
2024/02/25 12:41:15;;;;;;;;;;;;;;;21.60;24.88;97894.84;4978831;28;972;-75
2024/02/25 12:43:42;;;;;;;;;;;;;;;21.59;24.74;97899.72;4977478;28;1529;-76
2024/02/25 12:46:07;;;;;;;;;;;;;;;21.72;24.65;97890.50;4978783;28;1415;-75
2024/02/25 12:48:33;;;;;;;;;;;;;;;21.73;24.52;97887.19;4995250;28;1969;-75
2024/02/25 12:50:59;;;;;;;;;;;;;;;21.72;24.86;97885.63;5014670;28;1072;-75
2024/02/25 12:53:24;;;;;;;;;;;;;;;21.91;24.18;97880.19;5014304;28;891;-75